sensor_id;sensor_type;location;lat;lon;timestamp;P1;durP1;ratioP1;P2;durP2;ratioP2
75548;SDS011;64133;56.002;37.208;2023-06-26T00:01:08;11.25;;;6.05;;
75548;SDS011;64133;56.002;37.208;2023-06-26T00:06:13;9.88;;;5.90;;
75548;SDS011;64133;56.002;37.208;2023-06-26T00:11:18;17.12;;;6.53;;
75548;SDS011;64133;56.002;37.208;2023-06-26T00:16:23;9.40;;;5.87;;
75548;SDS011;64133;56.002;37.208;2023-06-26T00:21:27;10.15;;;5.40;;
75548;SDS011;64133;56.002;37.208;2023-06-26T00:26:32;11.65;;;5.80;;
75548;SDS011;64133;56.002;37.208;2023-06-26T00:31:37;10.13;;;5.62;;
75548;SDS011;64133;56.002;37.208;2023-06-26T00:36:42;8.48;;;5.58;;
75548;SDS011;64133;56.002;37.208;2023-06-26T00:41:47;9.73;;;5.80;;
75548;SDS011;64133;56.002;37.208;2023-06-26T00:46:51;13.65;;;5.90;;
75548;SDS011;64133;56.002;37.208;2023-06-26T00:51:56;9.83;;;5.37;;
75548;SDS011;64133;56.002;37.208;2023-06-26T00:57:01;10.10;;;5.65;;
75548;SDS011;64133;56.002;37.208;2023-06-26T01:02:06;12.37;;;5.55;;
75548;SDS011;64133;56.002;37.208;2023-06-26T01:07:11;10.08;;;5.50;;
75548;SDS011;64133;56.002;37.208;2023-06-26T01:12:15;9.35;;;5.30;;
75548;SDS011;64133;56.002;37.208;2023-06-26T01:17:20;9.65;;;5.72;;
75548;SDS011;64133;56.002;37.208;2023-06-26T01:22:27;8.75;;;5.28;;
75548;SDS011;64133;56.002;37.208;2023-06-26T01:27:30;9.35;;;5.33;;
75548;SDS011;64133;56.002;37.208;2023-06-26T01:32:35;9.98;;;6.17;;
75548;SDS011;64133;56.002;37.208;2023-06-26T01:37:41;9.03;;;5.95;;
75548;SDS011;64133;56.002;37.208;2023-06-26T01:42:45;9.38;;;5.78;;
75548;SDS011;64133;56.002;37.208;2023-06-26T01:47:50;8.75;;;5.17;;
75548;SDS011;64133;56.002;37.208;2023-06-26T01:52:58;7.25;;;4.70;;
75548;SDS011;64133;56.002;37.208;2023-06-26T01:58:03;10.50;;;5.12;;
75548;SDS011;64133;56.002;37.208;2023-06-26T02:03:07;7.22;;;5.00;;
75548;SDS011;64133;56.002;37.208;2023-06-26T02:08:13;8.23;;;5.28;;
75548;SDS011;64133;56.002;37.208;2023-06-26T02:13:18;8.80;;;5.17;;
75548;SDS011;64133;56.002;37.208;2023-06-26T02:18:22;11.55;;;5.95;;
75548;SDS011;64133;56.002;37.208;2023-06-26T02:23:27;10.95;;;5.83;;
75548;SDS011;64133;56.002;37.208;2023-06-26T02:28:32;11.25;;;5.65;;
75548;SDS011;64133;56.002;37.208;2023-06-26T02:33:37;9.58;;;5.25;;
75548;SDS011;64133;56.002;37.208;2023-06-26T02:38:41;10.88;;;6.15;;
75548;SDS011;64133;56.002;37.208;2023-06-26T02:43:46;11.90;;;5.75;;
75548;SDS011;64133;56.002;37.208;2023-06-26T02:48:51;13.70;;;6.53;;
75548;SDS011;64133;56.002;37.208;2023-06-26T02:53:55;13.95;;;6.95;;
75548;SDS011;64133;56.002;37.208;2023-06-26T02:59:00;13.55;;;6.75;;
75548;SDS011;64133;56.002;37.208;2023-06-26T03:04:05;13.80;;;6.78;;
75548;SDS011;64133;56.002;37.208;2023-06-26T03:09:09;15.85;;;6.72;;
75548;SDS011;64133;56.002;37.208;2023-06-26T03:14:14;12.78;;;7.00;;
75548;SDS011;64133;56.002;37.208;2023-06-26T03:19:19;11.53;;;6.17;;
75548;SDS011;64133;56.002;37.208;2023-06-26T03:24:24;14.18;;;6.85;;
75548;SDS011;64133;56.002;37.208;2023-06-26T03:29:28;12.85;;;6.65;;
75548;SDS011;64133;56.002;37.208;2023-06-26T03:34:33;10.32;;;6.37;;
75548;SDS011;64133;56.002;37.208;2023-06-26T03:39:38;11.68;;;5.95;;
75548;SDS011;64133;56.002;37.208;2023-06-26T03:44:43;29.92;;;14.70;;
75548;SDS011;64133;56.002;37.208;2023-06-26T03:49:47;10.50;;;6.20;;
75548;SDS011;64133;56.002;37.208;2023-06-26T03:54:52;12.13;;;7.28;;
75548;SDS011;64133;56.002;37.208;2023-06-26T03:59:57;12.65;;;7.58;;
75548;SDS011;64133;56.002;37.208;2023-06-26T04:05:01;13.03;;;7.08;;
75548;SDS011;64133;56.002;37.208;2023-06-26T04:10:07;10.32;;;6.55;;
75548;SDS011;64133;56.002;37.208;2023-06-26T04:15:12;13.50;;;7.58;;
75548;SDS011;64133;56.002;37.208;2023-06-26T04:20:17;13.90;;;7.83;;
75548;SDS011;64133;56.002;37.208;2023-06-26T04:25:22;14.07;;;8.15;;
75548;SDS011;64133;56.002;37.208;2023-06-26T04:30:27;12.30;;;7.17;;
75548;SDS011;64133;56.002;37.208;2023-06-26T04:35:31;14.00;;;7.47;;
75548;SDS011;64133;56.002;37.208;2023-06-26T04:40:36;18.70;;;7.95;;
75548;SDS011;64133;56.002;37.208;2023-06-26T04:45:41;13.05;;;7.35;;
75548;SDS011;64133;56.002;37.208;2023-06-26T04:50:45;12.05;;;7.50;;
75548;SDS011;64133;56.002;37.208;2023-06-26T04:55:50;11.50;;;7.10;;
75548;SDS011;64133;56.002;37.208;2023-06-26T05:00:55;15.78;;;7.72;;
75548;SDS011;64133;56.002;37.208;2023-06-26T05:06:00;11.35;;;6.42;;
75548;SDS011;64133;56.002;37.208;2023-06-26T05:11:04;12.30;;;7.40;;
75548;SDS011;64133;56.002;37.208;2023-06-26T05:16:09;13.00;;;6.03;;
75548;SDS011;64133;56.002;37.208;2023-06-26T05:21:14;12.65;;;6.90;;
75548;SDS011;64133;56.002;37.208;2023-06-26T05:26:20;12.00;;;6.92;;
75548;SDS011;64133;56.002;37.208;2023-06-26T05:31:25;9.45;;;6.83;;
75548;SDS011;64133;56.002;37.208;2023-06-26T05:36:30;11.63;;;6.40;;
75548;SDS011;64133;56.002;37.208;2023-06-26T05:41:38;9.03;;;5.53;;
75548;SDS011;64133;56.002;37.208;2023-06-26T05:46:43;10.68;;;5.55;;
75548;SDS011;64133;56.002;37.208;2023-06-26T05:51:49;7.90;;;5.17;;
75548;SDS011;64133;56.002;37.208;2023-06-26T05:56:55;8.78;;;5.03;;
75548;SDS011;64133;56.002;37.208;2023-06-26T06:01:58;9.78;;;4.60;;
75548;SDS011;64133;56.002;37.208;2023-06-26T06:07:03;6.33;;;4.03;;
75548;SDS011;64133;56.002;37.208;2023-06-26T06:12:08;8.93;;;4.00;;
75548;SDS011;64133;56.002;37.208;2023-06-26T06:17:13;6.92;;;4.05;;
75548;SDS011;64133;56.002;37.208;2023-06-26T06:22:18;6.28;;;3.60;;
75548;SDS011;64133;56.002;37.208;2023-06-26T06:27:23;6.12;;;3.67;;
75548;SDS011;64133;56.002;37.208;2023-06-26T06:32:28;7.15;;;3.33;;
75548;SDS011;64133;56.002;37.208;2023-06-26T06:37:32;5.95;;;3.72;;
75548;SDS011;64133;56.002;37.208;2023-06-26T06:42:38;5.20;;;3.15;;
75548;SDS011;64133;56.002;37.208;2023-06-26T06:47:43;6.42;;;3.33;;
75548;SDS011;64133;56.002;37.208;2023-06-26T06:52:48;6.30;;;3.62;;
75548;SDS011;64133;56.002;37.208;2023-06-26T06:57:53;5.47;;;3.37;;
75548;SDS011;64133;56.002;37.208;2023-06-26T07:02:57;8.10;;;3.52;;
75548;SDS011;64133;56.002;37.208;2023-06-26T07:08:02;6.00;;;3.50;;
75548;SDS011;64133;56.002;37.208;2023-06-26T07:13:07;5.78;;;3.30;;
75548;SDS011;64133;56.002;37.208;2023-06-26T07:18:12;5.97;;;3.50;;
75548;SDS011;64133;56.002;37.208;2023-06-26T07:23:17;7.92;;;3.37;;
75548;SDS011;64133;56.002;37.208;2023-06-26T07:28:22;6.70;;;3.85;;
75548;SDS011;64133;56.002;37.208;2023-06-26T07:33:27;5.35;;;3.60;;
75548;SDS011;64133;56.002;37.208;2023-06-26T07:38:31;5.87;;;3.60;;
75548;SDS011;64133;56.002;37.208;2023-06-26T07:43:36;9.45;;;3.05;;
75548;SDS011;64133;56.002;37.208;2023-06-26T07:48:41;5.00;;;3.40;;
75548;SDS011;64133;56.002;37.208;2023-06-26T07:53:48;6.55;;;2.85;;
75548;SDS011;64133;56.002;37.208;2023-06-26T07:58:53;6.35;;;2.95;;
75548;SDS011;64133;56.002;37.208;2023-06-26T08:03:58;4.40;;;3.00;;
75548;SDS011;64133;56.002;37.208;2023-06-26T08:09:03;6.28;;;3.27;;
75548;SDS011;64133;56.002;37.208;2023-06-26T08:14:08;6.00;;;2.92;;
75548;SDS011;64133;56.002;37.208;2023-06-26T08:19:13;4.72;;;2.95;;
75548;SDS011;64133;56.002;37.208;2023-06-26T08:24:18;4.65;;;3.17;;
75548;SDS011;64133;56.002;37.208;2023-06-26T08:29:22;5.92;;;3.40;;
75548;SDS011;64133;56.002;37.208;2023-06-26T08:34:27;5.83;;;3.20;;
75548;SDS011;64133;56.002;37.208;2023-06-26T08:39:32;6.85;;;3.20;;
75548;SDS011;64133;56.002;37.208;2023-06-26T08:44:37;5.58;;;3.20;;
75548;SDS011;64133;56.002;37.208;2023-06-26T08:49:45;5.53;;;3.40;;
75548;SDS011;64133;56.002;37.208;2023-06-26T08:54:58;4.65;;;3.08;;
75548;SDS011;64133;56.002;37.208;2023-06-26T08:59:54;5.72;;;3.40;;
75548;SDS011;64133;56.002;37.208;2023-06-26T09:11:06;5.22;;;3.35;;
75548;SDS011;64133;56.002;37.208;2023-06-26T09:16:10;7.28;;;3.47;;
75548;SDS011;64133;56.002;37.208;2023-06-26T09:21:15;6.30;;;3.40;;
75548;SDS011;64133;56.002;37.208;2023-06-26T09:26:20;6.08;;;3.58;;
75548;SDS011;64133;56.002;37.208;2023-06-26T09:31:25;6.45;;;4.17;;
75548;SDS011;64133;56.002;37.208;2023-06-26T09:36:33;5.45;;;3.42;;
75548;SDS011;64133;56.002;37.208;2023-06-26T09:41:38;6.72;;;3.80;;
75548;SDS011;64133;56.002;37.208;2023-06-26T09:46:44;6.12;;;3.60;;
75548;SDS011;64133;56.002;37.208;2023-06-26T09:51:49;6.08;;;3.65;;
75548;SDS011;64133;56.002;37.208;2023-06-26T09:56:53;9.50;;;3.90;;
75548;SDS011;64133;56.002;37.208;2023-06-26T10:02:02;6.45;;;4.17;;
75548;SDS011;64133;56.002;37.208;2023-06-26T10:07:10;7.45;;;3.75;;
75548;SDS011;64133;56.002;37.208;2023-06-26T10:12:15;5.53;;;3.75;;
75548;SDS011;64133;56.002;37.208;2023-06-26T10:22:36;8.40;;;3.45;;
75548;SDS011;64133;56.002;37.208;2023-06-26T10:27:40;7.03;;;4.42;;
75548;SDS011;64133;56.002;37.208;2023-06-26T10:32:43;8.18;;;4.22;;
75548;SDS011;64133;56.002;37.208;2023-06-26T10:37:53;6.08;;;3.50;;
75548;SDS011;64133;56.002;37.208;2023-06-26T10:43:07;6.15;;;4.03;;
75548;SDS011;64133;56.002;37.208;2023-06-26T10:48:12;8.33;;;3.58;;
75548;SDS011;64133;56.002;37.208;2023-06-26T10:53:22;6.92;;;3.87;;
75548;SDS011;64133;56.002;37.208;2023-06-26T10:58:28;7.40;;;4.10;;
75548;SDS011;64133;56.002;37.208;2023-06-26T11:03:39;6.20;;;3.47;;
75548;SDS011;64133;56.002;37.208;2023-06-26T11:08:47;6.17;;;4.10;;
75548;SDS011;64133;56.002;37.208;2023-06-26T11:13:51;6.97;;;3.58;;
75548;SDS011;64133;56.002;37.208;2023-06-26T11:18:58;6.15;;;3.45;;
75548;SDS011;64133;56.002;37.208;2023-06-26T11:24:03;5.03;;;2.90;;
75548;SDS011;64133;56.002;37.208;2023-06-26T11:29:08;6.92;;;3.72;;
75548;SDS011;64133;56.002;37.208;2023-06-26T11:34:13;6.50;;;3.25;;
75548;SDS011;64133;56.002;37.208;2023-06-26T11:39:18;6.00;;;3.70;;
75548;SDS011;64133;56.002;37.208;2023-06-26T11:44:22;6.12;;;3.35;;
75548;SDS011;64133;56.002;37.208;2023-06-26T11:49:27;6.25;;;3.17;;
75548;SDS011;64133;56.002;37.208;2023-06-26T11:54:32;5.35;;;2.98;;
75548;SDS011;64133;56.002;37.208;2023-06-26T11:59:38;6.62;;;3.42;;
75548;SDS011;64133;56.002;37.208;2023-06-26T12:04:43;5.70;;;3.45;;
75548;SDS011;64133;56.002;37.208;2023-06-26T12:09:49;7.65;;;4.03;;
75548;SDS011;64133;56.002;37.208;2023-06-26T12:14:54;9.73;;;3.35;;
75548;SDS011;64133;56.002;37.208;2023-06-26T12:19:58;9.03;;;3.55;;
75548;SDS011;64133;56.002;37.208;2023-06-26T12:25:04;5.17;;;2.95;;
75548;SDS011;64133;56.002;37.208;2023-06-26T12:30:12;11.60;;;4.80;;
75548;SDS011;64133;56.002;37.208;2023-06-26T12:35:17;6.22;;;3.62;;
75548;SDS011;64133;56.002;37.208;2023-06-26T12:40:22;6.90;;;3.62;;
75548;SDS011;64133;56.002;37.208;2023-06-26T12:45:27;5.55;;;3.30;;
75548;SDS011;64133;56.002;37.208;2023-06-26T12:50:37;7.05;;;3.52;;
75548;SDS011;64133;56.002;37.208;2023-06-26T12:55:43;9.00;;;3.02;;
75548;SDS011;64133;56.002;37.208;2023-06-26T13:00:47;7.75;;;3.90;;
75548;SDS011;64133;56.002;37.208;2023-06-26T13:05:52;5.12;;;3.10;;
75548;SDS011;64133;56.002;37.208;2023-06-26T13:10:57;4.58;;;3.05;;
75548;SDS011;64133;56.002;37.208;2023-06-26T13:16:02;7.42;;;3.22;;
75548;SDS011;64133;56.002;37.208;2023-06-26T13:21:06;5.90;;;3.10;;
75548;SDS011;64133;56.002;37.208;2023-06-26T13:26:11;5.33;;;3.12;;
75548;SDS011;64133;56.002;37.208;2023-06-26T13:31:16;5.55;;;3.25;;
75548;SDS011;64133;56.002;37.208;2023-06-26T13:36:21;5.97;;;3.45;;
75548;SDS011;64133;56.002;37.208;2023-06-26T13:41:25;7.15;;;3.37;;
75548;SDS011;64133;56.002;37.208;2023-06-26T13:46:30;5.15;;;3.20;;
75548;SDS011;64133;56.002;37.208;2023-06-26T13:51:35;6.00;;;3.77;;
75548;SDS011;64133;56.002;37.208;2023-06-26T13:56:40;6.67;;;3.87;;
75548;SDS011;64133;56.002;37.208;2023-06-26T14:01:44;6.67;;;3.77;;
75548;SDS011;64133;56.002;37.208;2023-06-26T14:06:50;5.85;;;3.55;;
75548;SDS011;64133;56.002;37.208;2023-06-26T14:11:54;4.80;;;3.00;;
75548;SDS011;64133;56.002;37.208;2023-06-26T14:16:59;6.50;;;3.40;;
75548;SDS011;64133;56.002;37.208;2023-06-26T14:22:13;4.87;;;2.87;;
75548;SDS011;64133;56.002;37.208;2023-06-26T14:27:18;4.80;;;2.70;;
75548;SDS011;64133;56.002;37.208;2023-06-26T14:32:23;7.87;;;3.60;;
75548;SDS011;64133;56.002;37.208;2023-06-26T14:37:28;6.42;;;3.52;;
75548;SDS011;64133;56.002;37.208;2023-06-26T14:42:35;4.87;;;3.12;;
75548;SDS011;64133;56.002;37.208;2023-06-26T14:47:40;5.65;;;3.10;;
75548;SDS011;64133;56.002;37.208;2023-06-26T14:52:44;4.60;;;2.58;;
75548;SDS011;64133;56.002;37.208;2023-06-26T14:57:49;5.65;;;2.80;;
75548;SDS011;64133;56.002;37.208;2023-06-26T15:02:54;3.98;;;2.80;;
75548;SDS011;64133;56.002;37.208;2023-06-26T15:07:59;4.50;;;2.22;;
75548;SDS011;64133;56.002;37.208;2023-06-26T15:13:03;3.77;;;2.40;;
75548;SDS011;64133;56.002;37.208;2023-06-26T15:18:08;5.22;;;2.17;;
75548;SDS011;64133;56.002;37.208;2023-06-26T15:23:13;5.10;;;2.35;;
75548;SDS011;64133;56.002;37.208;2023-06-26T15:28:18;4.53;;;2.70;;
75548;SDS011;64133;56.002;37.208;2023-06-26T15:33:22;4.45;;;2.15;;
75548;SDS011;64133;56.002;37.208;2023-06-26T15:38:28;5.42;;;3.08;;
75548;SDS011;64133;56.002;37.208;2023-06-26T15:43:32;3.52;;;2.27;;
75548;SDS011;64133;56.002;37.208;2023-06-26T15:48:37;4.15;;;2.20;;
75548;SDS011;64133;56.002;37.208;2023-06-26T15:53:51;3.65;;;2.17;;
75548;SDS011;64133;56.002;37.208;2023-06-26T15:58:56;5.28;;;2.27;;
75548;SDS011;64133;56.002;37.208;2023-06-26T16:09:47;4.50;;;3.00;;
75548;SDS011;64133;56.002;37.208;2023-06-26T16:14:51;4.00;;;2.20;;
75548;SDS011;64133;56.002;37.208;2023-06-26T16:19:56;7.03;;;2.92;;
75548;SDS011;64133;56.002;37.208;2023-06-26T16:25:01;3.92;;;2.40;;
75548;SDS011;64133;56.002;37.208;2023-06-26T16:30:07;4.17;;;2.60;;
75548;SDS011;64133;56.002;37.208;2023-06-26T16:40:17;3.92;;;2.20;;
75548;SDS011;64133;56.002;37.208;2023-06-26T16:45:22;5.22;;;2.47;;
75548;SDS011;64133;56.002;37.208;2023-06-26T16:50:26;6.08;;;3.33;;
75548;SDS011;64133;56.002;37.208;2023-06-26T16:55:31;7.12;;;2.60;;
75548;SDS011;64133;56.002;37.208;2023-06-26T17:00:36;3.47;;;2.00;;
75548;SDS011;64133;56.002;37.208;2023-06-26T17:05:41;5.65;;;3.02;;
75548;SDS011;64133;56.002;37.208;2023-06-26T17:10:46;4.53;;;2.50;;
75548;SDS011;64133;56.002;37.208;2023-06-26T17:15:51;4.78;;;2.02;;
75548;SDS011;64133;56.002;37.208;2023-06-26T17:20:55;3.50;;;1.87;;
75548;SDS011;64133;56.002;37.208;2023-06-26T17:26:00;3.95;;;1.77;;
75548;SDS011;64133;56.002;37.208;2023-06-26T17:31:05;4.35;;;1.72;;
75548;SDS011;64133;56.002;37.208;2023-06-26T17:36:10;2.83;;;1.75;;
75548;SDS011;64133;56.002;37.208;2023-06-26T17:41:14;4.12;;;2.25;;
75548;SDS011;64133;56.002;37.208;2023-06-26T17:46:19;3.40;;;2.00;;
75548;SDS011;64133;56.002;37.208;2023-06-26T17:51:24;3.33;;;1.95;;
75548;SDS011;64133;56.002;37.208;2023-06-26T17:56:29;3.20;;;1.52;;
75548;SDS011;64133;56.002;37.208;2023-06-26T18:01:34;4.17;;;1.70;;
75548;SDS011;64133;56.002;37.208;2023-06-26T18:06:39;4.33;;;1.70;;
75548;SDS011;64133;56.002;37.208;2023-06-26T18:11:43;6.17;;;2.05;;
75548;SDS011;64133;56.002;37.208;2023-06-26T18:16:48;3.72;;;1.72;;
75548;SDS011;64133;56.002;37.208;2023-06-26T18:21:53;4.00;;;2.05;;
75548;SDS011;64133;56.002;37.208;2023-06-26T18:26:58;5.00;;;2.10;;
75548;SDS011;64133;56.002;37.208;2023-06-26T18:32:02;5.58;;;2.62;;
75548;SDS011;64133;56.002;37.208;2023-06-26T18:37:08;4.45;;;2.45;;
75548;SDS011;64133;56.002;37.208;2023-06-26T18:42:12;3.75;;;1.75;;
75548;SDS011;64133;56.002;37.208;2023-06-26T18:52:45;5.55;;;1.98;;
75548;SDS011;64133;56.002;37.208;2023-06-26T18:57:48;4.35;;;2.55;;
75548;SDS011;64133;56.002;37.208;2023-06-26T19:02:52;3.70;;;1.80;;
75548;SDS011;64133;56.002;37.208;2023-06-26T19:07:57;6.87;;;2.85;;
75548;SDS011;64133;56.002;37.208;2023-06-26T19:13:01;5.60;;;2.12;;
75548;SDS011;64133;56.002;37.208;2023-06-26T19:18:06;4.40;;;2.35;;
75548;SDS011;64133;56.002;37.208;2023-06-26T19:23:11;3.90;;;2.15;;
75548;SDS011;64133;56.002;37.208;2023-06-26T19:28:16;5.67;;;1.70;;
75548;SDS011;64133;56.002;37.208;2023-06-26T19:33:21;4.60;;;2.05;;
75548;SDS011;64133;56.002;37.208;2023-06-26T19:38:26;4.10;;;2.12;;
75548;SDS011;64133;56.002;37.208;2023-06-26T19:43:30;4.22;;;1.90;;
75548;SDS011;64133;56.002;37.208;2023-06-26T19:48:35;5.60;;;2.12;;
75548;SDS011;64133;56.002;37.208;2023-06-26T19:53:40;3.67;;;1.90;;
75548;SDS011;64133;56.002;37.208;2023-06-26T19:58:45;5.05;;;1.90;;
75548;SDS011;64133;56.002;37.208;2023-06-26T20:03:49;6.50;;;2.42;;
75548;SDS011;64133;56.002;37.208;2023-06-26T20:08:54;6.58;;;2.47;;
75548;SDS011;64133;56.002;37.208;2023-06-26T20:13:59;4.92;;;1.87;;
75548;SDS011;64133;56.002;37.208;2023-06-26T20:19:04;7.08;;;2.40;;
75548;SDS011;64133;56.002;37.208;2023-06-26T20:24:08;3.83;;;2.15;;
75548;SDS011;64133;56.002;37.208;2023-06-26T20:29:13;10.32;;;4.47;;
75548;SDS011;64133;56.002;37.208;2023-06-26T20:34:18;5.28;;;2.65;;
75548;SDS011;64133;56.002;37.208;2023-06-26T20:39:23;5.15;;;2.00;;
75548;SDS011;64133;56.002;37.208;2023-06-26T20:44:29;5.87;;;1.87;;
75548;SDS011;64133;56.002;37.208;2023-06-26T20:49:35;7.72;;;2.55;;
75548;SDS011;64133;56.002;37.208;2023-06-26T20:54:41;4.00;;;2.45;;
75548;SDS011;64133;56.002;37.208;2023-06-26T20:59:46;5.40;;;2.98;;
75548;SDS011;64133;56.002;37.208;2023-06-26T21:04:51;4.60;;;2.37;;
75548;SDS011;64133;56.002;37.208;2023-06-26T21:09:56;4.45;;;2.05;;
75548;SDS011;64133;56.002;37.208;2023-06-26T21:15:00;3.95;;;2.22;;
75548;SDS011;64133;56.002;37.208;2023-06-26T21:20:06;8.45;;;2.75;;
75548;SDS011;64133;56.002;37.208;2023-06-26T21:25:11;6.83;;;2.72;;
75548;SDS011;64133;56.002;37.208;2023-06-26T21:30:16;4.42;;;2.60;;
75548;SDS011;64133;56.002;37.208;2023-06-26T21:35:24;4.70;;;2.80;;
75548;SDS011;64133;56.002;37.208;2023-06-26T21:40:29;4.92;;;2.80;;
75548;SDS011;64133;56.002;37.208;2023-06-26T21:45:34;5.60;;;2.95;;
75548;SDS011;64133;56.002;37.208;2023-06-26T21:50:39;4.50;;;2.45;;
75548;SDS011;64133;56.002;37.208;2023-06-26T21:55:44;5.17;;;3.08;;
75548;SDS011;64133;56.002;37.208;2023-06-26T22:00:48;5.17;;;2.83;;
75548;SDS011;64133;56.002;37.208;2023-06-26T22:05:53;5.92;;;3.55;;
75548;SDS011;64133;56.002;37.208;2023-06-26T22:10:58;6.90;;;3.00;;
75548;SDS011;64133;56.002;37.208;2023-06-26T22:16:03;4.08;;;2.55;;
75548;SDS011;64133;56.002;37.208;2023-06-26T22:21:08;5.67;;;3.17;;
75548;SDS011;64133;56.002;37.208;2023-06-26T22:26:13;5.47;;;3.50;;
75548;SDS011;64133;56.002;37.208;2023-06-26T22:31:17;7.22;;;4.25;;
75548;SDS011;64133;56.002;37.208;2023-06-26T22:36:24;8.45;;;4.03;;
75548;SDS011;64133;56.002;37.208;2023-06-26T22:41:29;6.58;;;3.52;;
75548;SDS011;64133;56.002;37.208;2023-06-26T22:46:33;9.15;;;3.75;;
75548;SDS011;64133;56.002;37.208;2023-06-26T22:51:38;4.75;;;3.10;;
75548;SDS011;64133;56.002;37.208;2023-06-26T22:56:46;9.05;;;4.20;;
75548;SDS011;64133;56.002;37.208;2023-06-26T23:01:51;8.13;;;4.15;;
75548;SDS011;64133;56.002;37.208;2023-06-26T23:06:56;12.03;;;5.60;;
75548;SDS011;64133;56.002;37.208;2023-06-26T23:17:14;6.05;;;3.75;;
75548;SDS011;64133;56.002;37.208;2023-06-26T23:22:18;6.17;;;3.70;;
75548;SDS011;64133;56.002;37.208;2023-06-26T23:27:23;6.97;;;3.85;;
75548;SDS011;64133;56.002;37.208;2023-06-26T23:32:28;5.78;;;3.92;;
75548;SDS011;64133;56.002;37.208;2023-06-26T23:37:33;7.10;;;3.98;;
75548;SDS011;64133;56.002;37.208;2023-06-26T23:42:37;7.35;;;4.75;;
75548;SDS011;64133;56.002;37.208;2023-06-26T23:47:43;8.63;;;4.17;;
75548;SDS011;64133;56.002;37.208;2023-06-26T23:52:47;5.58;;;3.90;;
75548;SDS011;64133;56.002;37.208;2023-06-26T23:57:52;5.22;;;3.42;;
